createdAt,value
2022-08-25T00:01:48.383Z,101363.03
2022-08-25T00:04:18.171Z,101366.94
2022-08-25T00:06:46.597Z,101364.84
2022-08-25T00:09:18.364Z,101366.56
2022-08-25T00:11:48.738Z,101364.47
2022-08-25T00:14:23.597Z,101366.75
2022-08-25T00:16:50.865Z,101363.31
2022-08-25T00:19:29.646Z,101364.75
2022-08-25T00:21:56.870Z,101369.59
2022-08-25T00:24:24.746Z,101367.19
2022-08-25T00:26:55.129Z,101367.59
2022-08-25T00:29:25.364Z,101361.13
2022-08-25T00:31:53.159Z,101362.72
2022-08-25T00:34:27.149Z,101359.09
2022-08-25T00:36:54.915Z,101363.38
2022-08-25T00:39:24.166Z,101360.69
2022-08-25T00:41:55.796Z,101360.91
2022-08-25T00:44:24.508Z,101359.19
2022-08-25T00:46:55.264Z,101360.53
2022-08-25T00:49:40.249Z,101366.72
2022-08-25T00:52:16.796Z,101361.38
2022-08-25T00:55:08.120Z,101364.53
2022-08-25T00:57:47.443Z,101365.63
2022-08-25T01:00:27.698Z,101366.53
2022-08-25T01:02:56.726Z,101361.44
2022-08-25T01:05:26.044Z,101365.13
2022-08-25T01:07:53.325Z,101360.72
2022-08-25T01:10:27.805Z,101364.00
2022-08-25T01:13:01.962Z,101360.97
2022-08-25T01:15:30.113Z,101356.19
2022-08-25T01:17:59.753Z,101366.63
2022-08-25T01:20:30.974Z,101364.91
2022-08-25T01:22:59.408Z,101365.97
2022-08-25T01:26:04.044Z,101362.34
2022-08-25T01:28:31.986Z,101359.59
2022-08-25T01:30:58.954Z,101361.66
2022-08-25T01:33:26.357Z,101362.72
2022-08-25T01:35:54.037Z,101362.06
2022-08-25T01:38:21.176Z,101366.56
2022-08-25T01:40:50.344Z,101361.66
2022-08-25T01:43:31.664Z,101355.03
2022-08-25T01:45:59.116Z,101364.81
2022-08-25T01:48:26.673Z,101363.97
2022-08-25T01:50:53.682Z,101357.97
2022-08-25T01:53:29.225Z,101356.06
2022-08-25T01:56:02.715Z,101362.41
2022-08-25T01:58:41.908Z,101353.88
2022-08-25T02:01:15.986Z,101352.00
2022-08-25T02:03:46.365Z,101351.53
2022-08-25T02:06:19.848Z,101345.59
2022-08-25T02:08:52.262Z,101346.66
2022-08-25T02:11:19.543Z,101341.38
2022-08-25T02:13:46.455Z,101344.63
2022-08-25T02:16:25.291Z,101347.06
2022-08-25T02:18:53.053Z,101346.53
2022-08-25T02:21:19.946Z,101351.50
2022-08-25T02:23:47.346Z,101352.53
2022-08-25T02:26:19.033Z,101350.44
2022-08-25T02:28:48.003Z,101350.09
2022-08-25T02:31:16.575Z,101350.09
2022-08-25T02:33:43.905Z,101357.31
2022-08-25T02:36:10.904Z,101356.81
2022-08-25T02:38:38.467Z,101358.19
2022-08-25T02:41:15.689Z,101357.53
2022-08-25T02:43:44.214Z,101350.84
2022-08-25T02:46:12.178Z,101358.06
2022-08-25T02:48:40.102Z,101359.59
2022-08-25T02:51:09.357Z,101360.44
2022-08-25T02:53:39.907Z,101345.38
2022-08-25T02:56:10.041Z,101351.19
2022-08-25T02:58:38.331Z,101353.09
2022-08-25T03:01:07.347Z,101347.41
2022-08-25T03:03:39.215Z,101348.59
2022-08-25T03:06:11.988Z,101347.22
2022-08-25T03:08:39.693Z,101340.38
2022-08-25T03:11:07.114Z,101348.06
2022-08-25T03:13:35.220Z,101346.00
2022-08-25T03:16:03.845Z,101355.09
2022-08-25T03:18:31.721Z,101342.59
2022-08-25T03:20:59.496Z,101348.38
2022-08-25T03:23:27.097Z,101341.03
2022-08-25T03:26:13.752Z,101339.13
2022-08-25T03:28:41.652Z,101347.03
2022-08-25T03:31:09.477Z,101340.84
2022-08-25T03:33:37.916Z,101347.56
2022-08-25T03:36:06.310Z,101345.66
2022-08-25T03:38:33.378Z,101358.19
2022-08-25T03:41:00.753Z,101357.34
2022-08-25T03:43:27.742Z,101358.03
2022-08-25T03:45:54.700Z,101356.66
2022-08-25T03:48:21.762Z,101358.38
2022-08-25T03:50:52.267Z,101342.44
2022-08-25T03:53:20.510Z,101353.91
2022-08-25T03:55:48.294Z,101345.69
2022-08-25T03:58:15.280Z,101352.72
2022-08-25T04:00:42.527Z,101352.22
2022-08-25T04:03:09.624Z,101351.38
2022-08-25T04:05:36.537Z,101345.19
2022-08-25T04:08:03.934Z,101348.47
2022-08-25T04:10:31.814Z,101346.94
2022-08-25T04:12:59.443Z,101343.00
2022-08-25T04:15:28.914Z,101338.34
2022-08-25T04:18:00.485Z,101332.81
2022-08-25T04:20:27.591Z,101315.72
2022-08-25T04:22:55.327Z,101327.53
2022-08-25T04:25:22.249Z,101315.22
2022-08-25T04:27:49.830Z,101316.25
2022-08-25T04:30:16.867Z,101314.19
2022-08-25T04:32:43.863Z,101312.09
2022-08-25T04:35:10.822Z,101300.63
2022-08-25T04:37:37.729Z,101309.88
2022-08-25T04:40:05.686Z,101321.25
2022-08-25T04:42:32.873Z,101315.25
2022-08-25T04:45:01.796Z,101331.69
2022-08-25T04:47:29.213Z,101325.66
2022-08-25T04:49:56.258Z,101326.16
2022-08-25T04:52:25.242Z,101332.47
2022-08-25T04:54:52.245Z,101327.84
2022-08-25T04:57:19.174Z,101330.94
2022-08-25T04:59:46.141Z,101334.38
2022-08-25T05:02:13.102Z,101334.22
2022-08-25T05:04:40.087Z,101333.19
2022-08-25T05:07:06.999Z,101339.69
2022-08-25T05:09:35.037Z,101326.81
2022-08-25T05:12:03.223Z,101313.50
2022-08-25T05:14:32.084Z,101326.84
2022-08-25T05:16:59.267Z,101314.53
2022-08-25T05:19:26.996Z,101317.31
2022-08-25T05:21:54.137Z,101320.75
2022-08-25T05:24:22.057Z,101313.03
2022-08-25T05:26:49.040Z,101310.44
2022-08-25T05:29:16.386Z,101324.69
2022-08-25T05:31:48.312Z,101318.81
2022-08-25T05:34:18.864Z,101312.81
2022-08-25T05:36:46.427Z,101320.22
2022-08-25T05:39:13.609Z,101321.56
2022-08-25T05:41:40.835Z,101321.41
2022-08-25T05:44:07.802Z,101316.75
2022-08-25T05:46:34.706Z,101315.03
2022-08-25T05:49:01.938Z,101311.97
2022-08-25T05:51:28.913Z,101315.88
2022-08-25T05:53:55.885Z,101320.00
2022-08-25T05:56:22.855Z,101317.31
2022-08-25T05:58:50.398Z,101309.41
2022-08-25T06:01:45.722Z,101320.53
2022-08-25T06:04:15.979Z,101321.72
2022-08-25T06:06:43.674Z,101323.25
2022-08-25T06:09:10.944Z,101324.44
2022-08-25T06:11:39.804Z,101325.41
2022-08-25T06:14:09.150Z,101317.50
2022-08-25T06:16:36.357Z,101325.41
2022-08-25T06:19:05.240Z,101321.78
2022-08-25T06:21:32.673Z,101306.13
2022-08-25T06:23:59.747Z,101306.78
2022-08-25T06:26:26.890Z,101305.56
2022-08-25T06:28:53.912Z,101306.34
2022-08-25T06:31:22.395Z,101309.53
2022-08-25T06:33:50.642Z,101314.63
2022-08-25T06:36:19.162Z,101304.31
2022-08-25T06:38:47.846Z,101299.03
2022-08-25T06:41:16.503Z,101299.81
2022-08-25T06:43:48.998Z,101299.59
2022-08-25T06:46:22.878Z,101298.78
2022-08-25T06:49:04.865Z,101298.88
2022-08-25T06:51:31.877Z,101301.63
2022-08-25T06:53:58.853Z,101301.09
2022-08-25T06:56:25.758Z,101304.28
2022-08-25T06:58:53.624Z,101308.13
2022-08-25T07:01:26.689Z,101314.88
2022-08-25T07:03:57.611Z,101304.56
2022-08-25T07:06:26.326Z,101314.56
2022-08-25T07:08:54.066Z,101304.19
2022-08-25T07:11:21.666Z,101297.69
2022-08-25T07:13:50.004Z,101296.25
2022-08-25T07:16:18.541Z,101304.56
2022-08-25T07:18:48.790Z,101303.88
2022-08-25T07:21:17.458Z,101305.09
2022-08-25T07:23:46.978Z,101310.34
2022-08-25T07:26:38.986Z,101302.50
2022-08-25T07:29:32.367Z,101305.91
2022-08-25T07:32:02.444Z,101310.03
2022-08-25T07:34:51.892Z,101305.63
2022-08-25T07:37:27.562Z,101308.22
2022-08-25T07:40:08.503Z,101313.22
2022-08-25T07:42:36.019Z,101313.06
2022-08-25T07:45:07.359Z,101312.25
2022-08-25T07:47:34.760Z,101317.78
2022-08-25T07:50:02.073Z,101313.81
2022-08-25T07:52:32.552Z,101318.72
2022-08-25T07:55:00.752Z,101312.41
2022-08-25T07:57:29.548Z,101297.53
2022-08-25T07:59:58.820Z,101312.13
2022-08-25T08:02:26.425Z,101312.81
2022-08-25T08:04:54.094Z,101314.56
2022-08-25T08:07:25.829Z,101302.28
2022-08-25T08:13:00.829Z,101306.88
2022-08-25T08:15:29.857Z,101312.72
2022-08-25T08:17:59.187Z,101312.09
2022-08-25T08:20:27.271Z,101305.50
2022-08-25T08:22:54.885Z,101302.28
2022-08-25T08:25:27.184Z,101303.16
2022-08-25T08:27:55.612Z,101297.19
2022-08-25T08:30:26.018Z,101297.38
2022-08-25T08:33:11.746Z,101296.94
2022-08-25T08:35:41.247Z,101307.19
2022-08-25T08:38:14.805Z,101293.28
2022-08-25T08:42:07.323Z,101292.16
2022-08-25T08:44:44.954Z,101286.63
2022-08-25T08:47:59.170Z,101293.59
2022-08-25T08:50:45.696Z,101281.66
2022-08-25T08:53:25.971Z,101289.47
2022-08-25T08:55:58.905Z,101291.06
2022-08-25T08:58:50.851Z,101288.81
2022-08-25T09:01:30.310Z,101285.09
2022-08-25T09:04:39.357Z,101275.00
2022-08-25T09:07:14.694Z,101279.84
2022-08-25T09:09:43.872Z,101265.31
2022-08-25T09:12:48.114Z,101260.63
2022-08-25T09:16:09.467Z,101252.84
2022-08-25T09:19:31.367Z,101259.63
2022-08-25T09:22:33.523Z,101249.72
2022-08-25T09:28:42.425Z,101254.19
2022-08-25T09:31:31.775Z,101243.94
2022-08-25T09:34:07.814Z,101248.13
2022-08-25T09:36:37.715Z,101241.75
2022-08-25T09:39:06.770Z,101237.91
2022-08-25T09:41:53.903Z,101231.06
2022-08-25T09:44:45.767Z,101224.78
2022-08-25T09:47:18.527Z,101224.75
2022-08-25T09:49:57.251Z,101221.00
2022-08-25T09:52:38.667Z,101220.16
2022-08-25T09:55:08.360Z,101218.59
2022-08-25T09:57:52.923Z,101213.22
2022-08-25T10:00:30.560Z,101203.81
2022-08-25T10:03:22.870Z,101198.38
2022-08-25T10:06:12.810Z,101181.53
2022-08-25T10:08:57.318Z,101192.78
2022-08-25T10:11:44.193Z,101176.09
2022-08-25T10:14:25.950Z,101176.38
2022-08-25T10:16:54.462Z,101166.97
2022-08-25T10:19:30.341Z,101171.22
2022-08-25T10:22:24.223Z,101160.34
2022-08-25T10:24:51.464Z,101167.25
2022-08-25T10:27:39.048Z,101151.53
2022-08-25T10:30:22.917Z,101147.81
2022-08-25T10:33:15.771Z,101138.38
2022-08-25T10:36:08.717Z,101138.84
2022-08-25T10:38:43.053Z,101134.63
2022-08-25T10:41:28.600Z,101132.81
2022-08-25T10:44:40.604Z,101127.59
2022-08-25T10:47:41.966Z,101125.38
2022-08-25T10:50:50.617Z,101120.09
2022-08-25T10:53:26.717Z,101120.56
2022-08-25T10:56:18.840Z,101117.13
2022-08-25T10:59:07.738Z,101115.97
2022-08-25T11:02:33.346Z,101108.31
2022-08-25T11:05:24.680Z,101108.41
2022-08-25T11:08:06.066Z,101099.59
2022-08-25T11:11:04.512Z,101103.09
2022-08-25T11:13:48.236Z,101103.28
2022-08-25T11:16:27.723Z,101089.81
2022-08-25T11:19:21.809Z,101076.97
2022-08-25T11:22:19.348Z,101095.00
2022-08-25T11:25:35.022Z,101094.16
2022-08-25T11:28:54.582Z,101084.84
2022-08-25T11:31:25.271Z,101082.47
2022-08-25T11:33:54.253Z,101090.53
2022-08-25T11:36:40.545Z,101080.13
2022-08-25T11:39:34.422Z,101080.53
2022-08-25T11:42:36.221Z,101084.94
2022-08-25T11:45:54.520Z,101063.88
2022-08-25T11:49:21.807Z,101077.75
2022-08-25T11:51:50.823Z,101073.44
2022-08-25T11:54:43.555Z,101066.75
2022-08-25T11:57:23.935Z,101059.81
2022-08-25T11:59:53.561Z,101056.25
2022-08-25T12:02:51.171Z,101069.03
2022-08-25T12:05:24.525Z,101062.06
2022-08-25T12:08:14.540Z,101062.19
2022-08-25T12:11:10.670Z,101061.38
2022-08-25T12:13:45.318Z,101052.66
2022-08-25T12:16:35.103Z,101060.56
2022-08-25T12:19:29.264Z,101053.94
2022-08-25T12:22:03.125Z,101053.28
2022-08-25T12:24:47.322Z,101053.84
2022-08-25T12:27:43.967Z,101045.25
2022-08-25T12:30:29.117Z,101040.28
2022-08-25T12:33:11.925Z,101033.00
2022-08-25T12:35:59.196Z,101044.31
2022-08-25T12:38:52.131Z,101033.06
2022-08-25T12:41:27.127Z,101038.59
2022-08-25T12:44:41.727Z,101030.72
2022-08-25T12:47:23.994Z,101034.25
2022-08-25T12:49:51.306Z,101021.84
2022-08-25T12:52:28.025Z,101032.38
2022-08-25T12:55:05.366Z,101024.31
2022-08-25T12:58:00.978Z,101027.75
2022-08-25T13:00:31.684Z,101031.25
2022-08-25T13:03:58.211Z,101030.13
2022-08-25T13:07:13.487Z,101023.59
2022-08-25T13:10:11.229Z,101018.78
2022-08-25T13:13:10.473Z,101012.41
2022-08-25T13:15:48.742Z,101005.78
2022-08-25T13:18:38.076Z,101005.19
2022-08-25T13:21:17.932Z,101008.66
2022-08-25T13:23:50.685Z,101001.38
2022-08-25T13:26:34.124Z,100973.56
2022-08-25T13:29:09.379Z,100986.75
2022-08-25T13:31:42.126Z,100982.31
2022-08-25T13:34:19.250Z,100985.09
2022-08-25T13:37:08.217Z,100965.44
2022-08-25T13:39:56.749Z,100974.59
2022-08-25T13:42:28.651Z,100975.75
2022-08-25T13:44:56.389Z,100965.53
2022-08-25T13:47:45.304Z,100965.16
2022-08-25T13:50:27.005Z,100962.94
2022-08-25T13:53:00.354Z,100954.44
2022-08-25T13:55:53.259Z,100962.31
2022-08-25T13:58:45.043Z,100949.03
2022-08-25T14:01:49.018Z,100947.34
2022-08-25T14:04:24.163Z,100946.75
2022-08-25T14:07:12.806Z,100938.84
2022-08-25T14:09:54.523Z,100942.97
2022-08-25T14:12:46.182Z,100939.84
2022-08-25T14:15:19.982Z,100946.53
2022-08-25T14:18:26.802Z,100945.19
2022-08-25T14:20:56.450Z,100933.91
2022-08-25T14:23:27.413Z,100935.00
2022-08-25T14:25:57.734Z,100928.81
2022-08-25T14:28:30.217Z,100924.44
2022-08-25T14:31:01.965Z,100922.91
2022-08-25T14:33:44.353Z,100927.69
2022-08-25T14:36:20.718Z,100934.03
2022-08-25T14:38:53.342Z,100924.94
2022-08-25T14:41:23.888Z,100920.97
2022-08-25T14:43:51.054Z,100919.09
2022-08-25T14:46:22.412Z,100921.38
2022-08-25T14:48:58.261Z,100919.66
2022-08-25T14:51:27.967Z,100911.25
2022-08-25T14:54:02.940Z,100911.56
2022-08-25T14:56:31.169Z,100907.16
2022-08-25T14:58:59.725Z,100901.34
2022-08-25T15:01:30.066Z,100914.38
2022-08-25T15:04:23.230Z,100917.63
2022-08-25T15:07:00.178Z,100908.38
2022-08-25T15:09:33.549Z,100901.19
2022-08-25T15:12:00.779Z,100902.78
2022-08-25T15:14:28.441Z,100896.50
2022-08-25T15:17:00.444Z,100886.41
2022-08-25T15:19:28.371Z,100888.78
2022-08-25T15:21:57.717Z,100879.66
2022-08-25T15:24:27.899Z,100879.97
2022-08-25T15:26:58.897Z,100888.34
2022-08-25T15:29:30.107Z,100878.28
2022-08-25T15:31:59.633Z,100876.41
2022-08-25T15:34:27.316Z,100875.44
2022-08-25T15:36:58.258Z,100875.25
2022-08-25T15:39:26.169Z,100865.31
2022-08-25T15:41:54.148Z,100853.78
2022-08-25T15:44:24.133Z,100862.53
2022-08-25T15:46:53.433Z,100860.97
2022-08-25T15:49:24.153Z,100856.47
2022-08-25T15:51:54.993Z,100852.94
2022-08-25T15:54:26.961Z,100848.13
2022-08-25T15:56:56.112Z,100852.56
2022-08-25T15:59:25.136Z,100848.78
2022-08-25T16:01:53.575Z,100856.84
2022-08-25T16:04:23.410Z,100852.75
2022-08-25T16:06:51.937Z,100848.03
2022-08-25T16:09:22.671Z,100850.63
2022-08-25T16:11:56.495Z,100848.88
2022-08-25T16:14:25.581Z,100846.84
2022-08-25T16:16:58.233Z,100845.31
2022-08-25T16:19:29.482Z,100844.41
2022-08-25T16:21:57.672Z,100849.53
2022-08-25T16:24:24.945Z,100839.59
2022-08-25T16:26:52.411Z,100851.44
2022-08-25T16:29:22.708Z,100853.78
2022-08-25T16:31:54.892Z,100839.50
2022-08-25T16:34:24.434Z,100850.81
2022-08-25T16:36:52.957Z,100841.50
2022-08-25T16:39:21.728Z,100832.34
2022-08-25T16:41:51.973Z,100842.13
2022-08-25T16:44:22.648Z,100839.75
2022-08-25T16:46:54.342Z,100833.84
2022-08-25T16:49:24.222Z,100835.75
2022-08-25T16:51:56.982Z,100828.28
2022-08-25T16:54:44.167Z,100827.66
2022-08-25T16:57:11.674Z,100828.75
2022-08-25T16:59:38.658Z,100830.34
2022-08-25T17:02:07.488Z,100830.50
2022-08-25T17:04:34.525Z,100831.59
2022-08-25T17:07:01.788Z,100828.84
2022-08-25T17:09:29.572Z,100826.31
2022-08-25T17:12:00.394Z,100833.25
2022-08-25T17:14:27.479Z,100825.53
2022-08-25T17:16:56.979Z,100828.34
2022-08-25T17:19:25.741Z,100828.13
2022-08-25T17:21:54.545Z,100829.91
2022-08-25T17:24:22.496Z,100821.56
2022-08-25T17:26:56.721Z,100820.97
2022-08-25T17:29:23.625Z,100820.88
2022-08-25T17:31:51.183Z,100828.25
2022-08-25T17:34:23.072Z,100829.59
2022-08-25T17:36:51.514Z,100832.00
2022-08-25T17:39:19.721Z,100836.75
2022-08-25T17:41:50.496Z,100827.28
2022-08-25T17:44:18.580Z,100819.91
2022-08-25T17:46:47.661Z,100828.97
2022-08-25T17:49:17.012Z,100835.53
2022-08-25T17:51:43.973Z,100833.47
2022-08-25T17:54:12.898Z,100829.25
2022-08-25T17:56:40.117Z,100836.38
2022-08-25T17:59:07.980Z,100829.09
2022-08-25T18:01:40.797Z,100830.44
2022-08-25T18:04:09.891Z,100827.78
2022-08-25T18:06:45.825Z,100836.69
2022-08-25T18:09:13.897Z,100839.59
2022-08-25T18:11:42.022Z,100834.63
2022-08-25T18:14:11.342Z,100841.59
2022-08-25T18:16:38.847Z,100837.72
2022-08-25T18:19:06.553Z,100843.03
2022-08-25T18:21:37.313Z,100844.59
2022-08-25T18:24:06.098Z,100842.91
2022-08-25T18:26:33.919Z,100853.47
2022-08-25T18:29:01.364Z,100847.66
2022-08-25T18:31:28.647Z,100846.91
2022-08-25T18:33:55.687Z,100838.03
2022-08-25T18:36:22.757Z,100847.31
2022-08-25T18:39:08.745Z,100851.25
2022-08-25T18:41:40.060Z,100850.75
2022-08-25T18:44:07.498Z,100858.50
2022-08-25T18:46:35.199Z,100854.38
2022-08-25T18:49:03.399Z,100855.28
2022-08-25T18:51:32.921Z,100856.06
2022-08-25T18:54:01.361Z,100856.75
2022-08-25T18:56:28.701Z,100859.34
2022-08-25T18:58:56.297Z,100859.06
2022-08-25T19:01:23.913Z,100862.69
2022-08-25T19:03:51.561Z,100859.78
2022-08-25T19:06:19.224Z,100858.13
2022-08-25T19:08:46.855Z,100851.19
2022-08-25T19:11:14.905Z,100864.91
2022-08-25T19:13:43.823Z,100864.75
2022-08-25T19:16:20.405Z,100867.13
2022-08-25T19:18:50.075Z,100861.63
2022-08-25T19:21:26.157Z,100861.25
2022-08-25T19:23:53.529Z,100862.59
2022-08-25T19:26:21.703Z,100853.75
2022-08-25T19:28:50.142Z,100857.59
2022-08-25T19:31:20.605Z,100853.16
2022-08-25T19:34:20.385Z,100870.63
2022-08-25T19:36:48.416Z,100867.00
2022-08-25T19:39:16.483Z,100864.84
2022-08-25T19:41:45.207Z,100867.41
2022-08-25T19:44:12.435Z,100856.56
2022-08-25T19:46:43.027Z,100863.16
2022-08-25T19:49:18.167Z,100861.06
2022-08-25T19:51:52.451Z,100863.44
2022-08-25T19:54:27.383Z,100860.44
2022-08-25T19:56:55.684Z,100867.91
2022-08-25T19:59:26.715Z,100866.66
2022-08-25T20:02:02.044Z,100878.59
2022-08-25T20:04:28.970Z,100865.91
2022-08-25T20:07:03.816Z,100874.22
2022-08-25T20:09:38.837Z,100871.28
2022-08-25T20:12:10.247Z,100874.56
2022-08-25T20:14:37.673Z,100870.75
2022-08-25T20:17:13.653Z,100877.09
2022-08-25T20:19:51.122Z,100876.69
2022-08-25T20:22:19.244Z,100881.19
2022-08-25T20:24:57.347Z,100868.69
2022-08-25T20:27:33.172Z,100877.44
2022-08-25T20:30:02.556Z,100880.22
2022-08-25T20:32:31.864Z,100875.78
2022-08-25T20:34:59.262Z,100882.78
2022-08-25T20:37:26.413Z,100887.91
2022-08-25T20:39:53.409Z,100877.31
2022-08-25T20:42:20.560Z,100882.88
2022-08-25T20:44:47.582Z,100882.47
2022-08-25T20:47:15.008Z,100873.13
2022-08-25T20:49:45.053Z,100882.47
2022-08-25T20:52:14.515Z,100880.56
2022-08-25T20:54:46.925Z,100883.91
2022-08-25T20:57:18.764Z,100887.31
2022-08-25T20:59:53.496Z,100881.38
2022-08-25T21:02:20.529Z,100880.53
2022-08-25T21:04:48.894Z,100884.34
2022-08-25T21:07:17.544Z,100881.16
2022-08-25T21:09:44.938Z,100873.94
2022-08-25T21:12:11.858Z,100877.56
2022-08-25T21:14:41.604Z,100880.31
2022-08-25T21:17:12.100Z,100884.97
2022-08-25T21:19:40.336Z,100877.97
2022-08-25T21:22:10.735Z,100887.13
2022-08-25T21:24:39.051Z,100878.19
2022-08-25T21:27:06.349Z,100878.41
2022-08-25T21:29:33.357Z,100886.88
2022-08-25T21:32:00.756Z,100883.91
2022-08-25T21:34:29.331Z,100889.22
2022-08-25T21:36:59.375Z,100882.66
2022-08-25T21:39:29.615Z,100887.09
2022-08-25T21:42:00.191Z,100883.69
2022-08-25T21:44:28.408Z,100884.53
2022-08-25T21:46:56.269Z,100869.69
2022-08-25T21:49:24.702Z,100885.78
2022-08-25T21:52:00.456Z,100880.06
2022-08-25T21:54:28.995Z,100882.56
2022-08-25T21:57:00.391Z,100886.78
2022-08-25T21:59:34.650Z,100876.16
2022-08-25T22:02:05.796Z,100875.72
2022-08-25T22:04:36.198Z,100874.00
2022-08-25T22:07:03.573Z,100872.53
2022-08-25T22:09:31.368Z,100873.34
2022-08-25T22:11:58.686Z,100869.53
2022-08-25T22:14:27.033Z,100868.66
2022-08-25T22:16:55.286Z,100867.34
2022-08-25T22:19:23.420Z,100854.41
2022-08-25T22:21:53.153Z,100860.13
2022-08-25T22:24:21.354Z,100864.13
2022-08-25T22:26:48.566Z,100856.28
2022-08-25T22:29:25.562Z,100866.19
2022-08-25T22:31:58.580Z,100869.97
2022-08-25T22:34:30.616Z,100856.59
2022-08-25T22:37:01.448Z,100852.56
2022-08-25T22:39:29.284Z,100854.25
2022-08-25T22:41:56.724Z,100857.41
2022-08-25T22:44:25.644Z,100858.47
2022-08-25T22:46:53.561Z,100851.88
2022-08-25T22:49:21.743Z,100859.91
2022-08-25T22:51:48.913Z,100857.38
2022-08-25T22:54:16.347Z,100848.03
2022-08-25T22:56:43.617Z,100856.72
2022-08-25T22:59:13.545Z,100845.88
2022-08-25T23:01:41.089Z,100854.97
2022-08-25T23:04:08.055Z,100845.44
2022-08-25T23:06:35.428Z,100838.16
2022-08-25T23:09:05.694Z,100849.19
2022-08-25T23:11:32.981Z,100842.78
2022-08-25T23:14:00.555Z,100839.59
2022-08-25T23:16:28.927Z,100836.59
2022-08-25T23:18:56.157Z,100841.25
2022-08-25T23:21:42.427Z,100841.25
2022-08-25T23:24:11.250Z,100831.22
2022-08-25T23:26:42.414Z,100836.72
2022-08-25T23:29:18.363Z,100831.41
2022-08-25T23:31:47.660Z,100827.97
2022-08-25T23:34:16.313Z,100826.47
2022-08-25T23:36:43.963Z,100824.38
2022-08-25T23:39:11.532Z,100823.97
2022-08-25T23:41:39.404Z,100845.81
2022-08-25T23:44:06.467Z,100840.75
2022-08-25T23:46:36.194Z,100830.34
2022-08-25T23:49:05.741Z,100835.41
2022-08-25T23:51:38.309Z,100838.38
2022-08-25T23:54:09.481Z,100835.63
2022-08-25T23:56:44.454Z,100835.38
2022-08-25T23:59:12.995Z,100828.19
